Time;durP1;ratioP1;P1;durP2;ratioP2;P2;SDS_P1;SDS_P2;PMS_P1;PMS_P2;Temp;Humidity;BMP_temperature;BMP_pressure;BME280_temperature;BME280_humidity;BME280_pressure;Samples;Min_cycle;Max_cycle;Signal;HPM_P1;HPM_P2
2022/08/28 00:00:24;;;;;;;;;;;27.40;80.90;;;;;;5016481;28;19930;-63
2022/08/28 00:02:51;;;;;;;;;;;27.40;80.90;;;;;;5016202;28;19925;-61
2022/08/28 00:05:20;;;;;;;;;;;27.40;80.90;;;;;;5027868;28;19936;-62
2022/08/28 00:07:47;;;;;;;;;;;27.40;80.90;;;;;;5034531;28;20564;-61
2022/08/28 00:10:16;;;;;;;;;;;27.40;80.90;;;;;;5028360;28;19930;-61
2022/08/28 00:12:44;;;;;;;;;;;27.40;80.90;;;;;;5030572;28;19926;-63
2022/08/28 00:15:13;;;;;;;;;;;27.40;81.00;;;;;;5020568;28;19930;-59
2022/08/28 00:17:40;;;;;;;;;;;27.40;80.90;;;;;;5023634;28;19930;-63
2022/08/28 00:20:09;;;;;;;;;;;27.40;80.90;;;;;;5029793;28;19929;-61
2022/08/28 00:22:37;;;;;;;;;;;27.40;80.90;;;;;;5029342;28;19936;-60
2022/08/28 00:25:09;;;;;;;;;;;27.40;80.90;;;;;;5025691;28;20004;-60
2022/08/28 00:27:51;;;;;;;;;;;27.40;80.90;;;;;;5026347;28;19929;-58
2022/08/28 00:30:38;;;;;;;;;;;27.40;80.90;;;;;;5014436;28;19929;-59
2022/08/28 00:33:09;;;;;;;;;;;27.40;80.90;;;;;;5030422;28;19944;-63
2022/08/28 00:35:38;;;;;;;;;;;27.30;80.90;;;;;;5018523;28;19929;-61
2022/08/28 00:38:07;;;;;;;;;;;27.40;81.00;;;;;;5027880;28;19933;-62
2022/08/28 00:40:36;;;;;;;;;;;27.40;81.00;;;;;;5017109;28;19937;-61
2022/08/28 00:43:04;;;;;;;;;;;27.30;80.90;;;;;;5020293;28;20344;-61
2022/08/28 00:45:32;;;;;;;;;;;27.30;81.00;;;;;;5017565;28;19929;-62
2022/08/28 00:48:05;;;;;;;;;;;27.30;80.90;;;;;;5021307;28;19929;-61
2022/08/28 00:52:04;;;;;;;;;;;27.30;81.00;;;;;;5014494;28;19930;-63
2022/08/28 00:53:28;;;;;;;;;;;27.40;81.00;;;;;;5012561;28;19930;-64
2022/08/28 00:56:01;;;;;;;;;;;27.30;81.00;;;;;;5015494;28;20472;-62
2022/08/28 00:58:31;;;;;;;;;;;27.30;81.00;;;;;;5021077;28;19940;-63
2022/08/28 01:00:59;;;;;;;;;;;27.30;81.00;;;;;;5008747;28;20463;-63
2022/08/28 01:03:27;;;;;;;;;;;27.30;81.00;;;;;;5009146;28;21037;-63
2022/08/28 01:05:54;;;;;;;;;;;27.30;81.00;;;;;;5010310;28;20516;-63
2022/08/28 01:08:22;;;;;;;;;;;27.30;81.00;;;;;;5015115;28;20401;-63
2022/08/28 01:10:52;;;;;;;;;;;27.30;81.00;;;;;;5026168;28;20389;-62
2022/08/28 01:13:21;;;;;;;;;;;27.30;81.00;;;;;;5022332;28;19944;-62
2022/08/28 01:15:48;;;;;;;;;;;27.30;81.00;;;;;;5011936;28;19929;-63
2022/08/28 01:18:16;;;;;;;;;;;27.30;81.00;;;;;;5018640;28;19929;-63
2022/08/28 01:20:50;;;;;;;;;;;27.30;81.00;;;;;;5005039;28;19944;-63
2022/08/28 01:23:37;;;;;;;;;;;27.30;81.00;;;;;;5005746;28;19930;-62
2022/08/28 01:26:06;;;;;;;;;;;27.30;81.00;;;;;;5017576;28;19936;-62
2022/08/28 01:28:38;;;;;;;;;;;27.30;81.00;;;;;;5016420;28;19925;-62
2022/08/28 01:31:08;;;;;;;;;;;27.30;81.00;;;;;;5015402;28;19930;-61
2022/08/28 01:33:35;;;;;;;;;;;27.30;81.00;;;;;;5023490;28;19929;-63
2022/08/28 01:36:10;;;;;;;;;;;27.30;81.00;;;;;;5013521;28;20377;-61
2022/08/28 01:38:39;;;;;;;;;;;27.30;81.00;;;;;;5027679;28;19940;-61
2022/08/28 01:41:06;;;;;;;;;;;27.30;81.00;;;;;;5035299;28;19929;-61
2022/08/28 01:43:33;;;;;;;;;;;27.30;81.00;;;;;;5027360;28;19936;-59
2022/08/28 01:46:03;;;;;;;;;;;27.30;81.00;;;;;;5017350;28;19933;-62
2022/08/28 01:48:32;;;;;;;;;;;27.30;81.10;;;;;;5014294;28;19933;-61
2022/08/28 01:50:59;;;;;;;;;;;27.30;81.00;;;;;;5014001;28;19929;-62
2022/08/28 01:53:27;;;;;;;;;;;27.30;81.00;;;;;;5017161;28;19929;-62
2022/08/28 01:56:00;;;;;;;;;;;27.20;81.00;;;;;;5021235;28;19929;-60
2022/08/28 01:58:30;;;;;;;;;;;27.30;81.00;;;;;;5022824;28;20395;-61
2022/08/28 02:01:15;;;;;;;;;;;27.20;80.90;;;;;;5008507;28;20325;-62
2022/08/28 02:03:43;;;;;;;;;;;27.30;81.00;;;;;;5005206;28;19936;-62
2022/08/28 02:06:11;;;;;;;;;;;27.30;81.00;;;;;;5011857;28;19926;-63
2022/08/28 02:08:38;;;;;;;;;;;27.20;81.00;;;;;;5016601;28;19944;-56
2022/08/28 02:11:07;;;;;;;;;;;27.20;81.00;;;;;;5016252;28;19937;-62
2022/08/28 02:13:35;;;;;;;;;;;27.20;81.00;;;;;;5014994;28;19925;-60
2022/08/28 02:16:04;;;;;;;;;;;27.20;81.00;;;;;;5021211;28;20395;-63
2022/08/28 02:18:31;;;;;;;;;;;27.20;81.00;;;;;;5014824;28;19929;-60
2022/08/28 02:20:59;;;;;;;;;;;27.20;81.00;;;;;;5020088;28;19929;-61
2022/08/28 02:23:26;;;;;;;;;;;27.20;81.00;;;;;;5019352;28;19929;-60
2022/08/28 02:25:53;;;;;;;;;;;27.20;81.00;;;;;;5019313;28;19929;-60
2022/08/28 02:28:20;;;;;;;;;;;27.20;81.00;;;;;;5021007;28;19936;-61
2022/08/28 02:30:47;;;;;;;;;;;27.20;81.00;;;;;;5007564;28;19929;-61
2022/08/28 02:33:15;;;;;;;;;;;27.20;81.00;;;;;;5008201;28;19933;-60
2022/08/28 02:35:42;;;;;;;;;;;27.20;81.00;;;;;;5013798;28;20405;-59
2022/08/28 02:38:09;;;;;;;;;;;27.20;81.00;;;;;;5020761;28;19929;-62
2022/08/28 02:40:37;;;;;;;;;;;27.20;81.00;;;;;;5018362;28;19929;-60
2022/08/28 02:43:04;;;;;;;;;;;27.20;81.00;;;;;;5020026;28;19925;-61
2022/08/28 02:45:32;;;;;;;;;;;27.20;81.00;;;;;;5019811;28;19960;-60
2022/08/28 02:48:00;;;;;;;;;;;27.20;81.00;;;;;;5015017;28;20330;-60
2022/08/28 02:50:28;;;;;;;;;;;27.20;81.00;;;;;;5007322;28;19933;-61
2022/08/28 02:52:56;;;;;;;;;;;27.20;81.00;;;;;;5012918;28;20329;-61
2022/08/28 02:55:24;;;;;;;;;;;27.20;81.00;;;;;;5010102;28;20396;-61
2022/08/28 02:57:51;;;;;;;;;;;27.20;81.00;;;;;;5021590;28;19929;-59
2022/08/28 03:00:20;;;;;;;;;;;27.20;81.00;;;;;;5011174;28;20397;-60
2022/08/28 03:02:47;;;;;;;;;;;27.20;81.00;;;;;;5007722;28;19977;-60
2022/08/28 03:05:16;;;;;;;;;;;27.20;81.00;;;;;;5017989;28;19940;-59
2022/08/28 03:07:43;;;;;;;;;;;27.20;81.00;;;;;;5004957;28;19925;-61
2022/08/28 03:10:10;;;;;;;;;;;27.20;81.10;;;;;;5016860;28;19933;-59
2022/08/28 03:12:37;;;;;;;;;;;27.10;81.00;;;;;;5011136;28;20581;-58
2022/08/28 03:15:06;;;;;;;;;;;27.20;81.10;;;;;;5004045;28;19936;-60
2022/08/28 03:17:35;;;;;;;;;;;27.10;81.00;;;;;;5004750;28;20392;-60
2022/08/28 03:20:04;;;;;;;;;;;27.10;81.00;;;;;;4997586;28;19929;-61
2022/08/28 03:25:17;;;;;;;;;;;27.10;81.10;;;;;;5021491;28;20023;-60
2022/08/28 03:27:44;;;;;;;;;;;27.10;81.00;;;;;;5010683;28;19929;-60
2022/08/28 03:30:13;;;;;;;;;;;27.10;81.00;;;;;;5007814;28;19930;-61
2022/08/28 03:32:40;;;;;;;;;;;27.10;81.00;;;;;;5012462;28;19930;-63
2022/08/28 03:35:07;;;;;;;;;;;27.10;81.00;;;;;;5013838;28;19929;-62
2022/08/28 03:37:34;;;;;;;;;;;27.20;81.10;;;;;;5001823;28;19929;-62
2022/08/28 03:40:02;;;;;;;;;;;27.10;81.00;;;;;;5010077;28;19934;-62
2022/08/28 03:42:30;;;;;;;;;;;27.10;81.00;;;;;;5008550;28;19929;-60
2022/08/28 03:44:58;;;;;;;;;;;27.10;81.00;;;;;;5011770;28;19925;-61
2022/08/28 03:47:27;;;;;;;;;;;27.10;81.00;;;;;;5002204;28;19933;-62
2022/08/28 03:49:56;;;;;;;;;;;27.10;81.00;;;;;;5011726;28;20421;-61
2022/08/28 03:52:24;;;;;;;;;;;27.10;81.00;;;;;;5001722;28;19929;-59
2022/08/28 03:54:51;;;;;;;;;;;27.10;81.10;;;;;;5014168;28;19937;-59
2022/08/28 03:57:19;;;;;;;;;;;27.10;81.10;;;;;;5027755;28;19926;-62
2022/08/28 03:59:47;;;;;;;;;;;27.10;81.10;;;;;;5027532;28;19936;-62
2022/08/28 04:02:17;;;;;;;;;;;27.10;81.10;;;;;;5018822;28;19941;-62
2022/08/28 04:04:45;;;;;;;;;;;27.10;81.10;;;;;;5019420;28;19942;-62
2022/08/28 04:07:13;;;;;;;;;;;27.00;81.00;;;;;;5018384;28;19957;-62
2022/08/28 04:09:40;;;;;;;;;;;27.10;81.10;;;;;;5023187;28;19933;-62
2022/08/28 04:12:08;;;;;;;;;;;27.00;81.10;;;;;;5017049;28;19929;-62
2022/08/28 04:14:35;;;;;;;;;;;27.00;81.00;;;;;;5019542;28;19933;-60
2022/08/28 04:17:03;;;;;;;;;;;27.10;81.10;;;;;;5019326;28;19934;-61
2022/08/28 04:19:30;;;;;;;;;;;27.10;81.10;;;;;;5013494;28;19948;-61
2022/08/28 04:21:57;;;;;;;;;;;27.00;81.10;;;;;;5025526;28;19929;-61
2022/08/28 04:24:24;;;;;;;;;;;27.00;81.10;;;;;;5016161;28;19937;-61
2022/08/28 04:26:52;;;;;;;;;;;27.00;81.10;;;;;;5007351;28;19940;-60
2022/08/28 04:29:19;;;;;;;;;;;27.10;81.10;;;;;;5017718;28;19951;-60
2022/08/28 04:31:47;;;;;;;;;;;27.00;81.10;;;;;;5007491;28;19928;-62
2022/08/28 04:34:14;;;;;;;;;;;27.00;81.00;;;;;;5007490;28;19930;-61
2022/08/28 04:36:41;;;;;;;;;;;27.00;81.10;;;;;;5009153;28;19930;-61
2022/08/28 04:39:09;;;;;;;;;;;27.00;81.10;;;;;;5008082;28;19930;-59
2022/08/28 04:41:37;;;;;;;;;;;27.00;81.10;;;;;;5008416;28;20398;-59
2022/08/28 04:44:05;;;;;;;;;;;27.00;81.10;;;;;;5016070;28;20396;-60
2022/08/28 04:46:32;;;;;;;;;;;27.10;81.10;;;;;;5007606;28;20417;-62
2022/08/28 04:48:59;;;;;;;;;;;27.00;81.00;;;;;;5004868;28;20419;-62
2022/08/28 04:51:27;;;;;;;;;;;27.00;81.10;;;;;;5018689;28;19928;-62
2022/08/28 04:53:54;;;;;;;;;;;27.00;81.10;;;;;;5015417;28;19936;-60
2022/08/28 04:56:22;;;;;;;;;;;27.00;81.10;;;;;;5013569;28;20635;-60
2022/08/28 04:58:49;;;;;;;;;;;27.00;81.10;;;;;;5014953;28;19929;-59
2022/08/28 05:01:18;;;;;;;;;;;27.00;81.00;;;;;;5004912;28;19932;-58
2022/08/28 05:03:46;;;;;;;;;;;27.00;81.00;;;;;;5015420;28;19929;-60
2022/08/28 05:06:14;;;;;;;;;;;27.00;81.00;;;;;;5013634;28;19952;-60
2022/08/28 05:08:41;;;;;;;;;;;27.00;81.60;;;;;;5014011;28;20321;-60
2022/08/28 05:11:09;;;;;;;;;;;27.00;81.10;;;;;;5008545;28;19930;-61
2022/08/28 05:13:37;;;;;;;;;;;27.00;81.00;;;;;;5000388;28;19934;-61
2022/08/28 05:16:04;;;;;;;;;;;27.00;81.10;;;;;;5004381;28;20317;-62
2022/08/28 05:18:31;;;;;;;;;;;27.00;81.10;;;;;;5006783;28;19925;-60
2022/08/28 05:20:59;;;;;;;;;;;27.00;81.00;;;;;;5017939;28;20047;-61
2022/08/28 05:23:26;;;;;;;;;;;27.00;81.10;;;;;;5017693;28;19929;-59
2022/08/28 05:25:54;;;;;;;;;;;27.00;81.10;;;;;;5024377;28;19929;-60
2022/08/28 05:28:23;;;;;;;;;;;27.00;81.10;;;;;;5014420;28;19929;-60
2022/08/28 05:30:50;;;;;;;;;;;27.00;81.10;;;;;;5009063;28;20317;-61
2022/08/28 05:33:18;;;;;;;;;;;27.00;81.00;;;;;;5021039;28;19930;-59
2022/08/28 05:35:46;;;;;;;;;;;27.00;81.00;;;;;;5017209;28;19936;-59
2022/08/28 05:38:14;;;;;;;;;;;27.00;81.10;;;;;;5009821;28;19929;-63
2022/08/28 05:40:46;;;;;;;;;;;27.00;81.10;;;;;;5014215;28;19930;-61
2022/08/28 05:43:15;;;;;;;;;;;27.00;81.00;;;;;;5015089;28;20005;-61
2022/08/28 05:45:42;;;;;;;;;;;27.00;81.00;;;;;;5006832;28;19937;-60
2022/08/28 05:48:10;;;;;;;;;;;27.00;81.00;;;;;;5006264;28;19929;-60
2022/08/28 05:50:38;;;;;;;;;;;27.00;81.00;;;;;;5007793;28;19929;-61
2022/08/28 05:53:10;;;;;;;;;;;27.00;81.00;;;;;;5005629;28;19925;-60
2022/08/28 05:55:38;;;;;;;;;;;26.90;80.90;;;;;;5007850;28;20321;-61
2022/08/28 06:00:51;;;;;;;;;;;27.00;81.10;;;;;;5012523;28;19936;-62
2022/08/28 06:03:19;;;;;;;;;;;26.90;81.00;;;;;;5013870;28;19929;-61
2022/08/28 06:05:53;;;;;;;;;;;26.90;81.00;;;;;;5020207;28;19929;-62
2022/08/28 06:08:22;;;;;;;;;;;26.90;81.00;;;;;;5020260;28;19948;-61
2022/08/28 06:10:49;;;;;;;;;;;27.00;81.10;;;;;;5019621;28;19940;-61
2022/08/28 06:13:17;;;;;;;;;;;26.90;81.00;;;;;;4991096;28;19947;-60
2022/08/28 06:15:46;;;;;;;;;;;27.00;81.00;;;;;;5011942;28;19926;-62
2022/08/28 06:18:14;;;;;;;;;;;26.90;81.00;;;;;;5005898;28;19930;-63
2022/08/28 06:20:42;;;;;;;;;;;26.90;81.00;;;;;;5007066;28;20294;-61
2022/08/28 06:23:11;;;;;;;;;;;26.90;81.00;;;;;;5015301;28;19929;-61
2022/08/28 06:25:38;;;;;;;;;;;26.90;81.00;;;;;;5019128;28;19935;-60
2022/08/28 06:28:06;;;;;;;;;;;27.00;81.10;;;;;;5013033;28;19933;-60
2022/08/28 06:30:37;;;;;;;;;;;26.90;81.00;;;;;;5013533;28;19948;-60
2022/08/28 06:33:08;;;;;;;;;;;26.90;81.00;;;;;;5005133;28;20010;-62
2022/08/28 06:35:39;;;;;;;;;;;26.90;81.00;;;;;;5008633;28;19930;-63
2022/08/28 06:38:06;;;;;;;;;;;26.90;81.00;;;;;;5025400;28;19929;-61
2022/08/28 06:40:41;;;;;;;;;;;26.90;81.00;;;;;;4997881;28;19940;-60
2022/08/28 06:43:09;;;;;;;;;;;26.90;81.00;;;;;;5014158;28;20309;-60
2022/08/28 06:45:39;;;;;;;;;;;27.00;81.10;;;;;;5015414;28;19929;-61
2022/08/28 06:48:11;;;;;;;;;;;26.90;81.00;;;;;;5012907;28;19929;-61
2022/08/28 06:50:39;;;;;;;;;;;26.90;81.00;;;;;;5010571;28;19930;-59
2022/08/28 06:53:07;;;;;;;;;;;26.90;81.00;;;;;;5020158;28;19937;-61
2022/08/28 06:55:35;;;;;;;;;;;26.90;80.90;;;;;;5013504;28;20614;-66
2022/08/28 06:58:04;;;;;;;;;;;26.90;80.90;;;;;;5009481;28;19925;-61
2022/08/28 07:00:31;;;;;;;;;;;27.00;81.00;;;;;;5021507;28;20300;-60
2022/08/28 07:02:58;;;;;;;;;;;27.00;81.00;;;;;;5012831;28;20602;-62
2022/08/28 07:05:26;;;;;;;;;;;27.00;81.00;;;;;;5001592;28;19937;-61
2022/08/28 07:07:54;;;;;;;;;;;27.00;81.00;;;;;;5018810;28;19929;-57
2022/08/28 07:10:21;;;;;;;;;;;27.00;81.00;;;;;;5019815;28;19929;-61
2022/08/28 07:12:48;;;;;;;;;;;27.00;81.00;;;;;;5003822;28;19934;-63
2022/08/28 07:15:18;;;;;;;;;;;27.00;81.00;;;;;;5012727;28;19929;-62
2022/08/28 07:17:45;;;;;;;;;;;27.00;81.00;;;;;;5018318;28;19932;-62
2022/08/28 07:20:13;;;;;;;;;;;27.00;81.00;;;;;;5007000;28;19937;-63
2022/08/28 07:22:40;;;;;;;;;;;27.10;81.10;;;;;;5019085;28;19940;-62
2022/08/28 07:25:07;;;;;;;;;;;27.10;81.00;;;;;;5007196;28;19928;-61
2022/08/28 07:27:35;;;;;;;;;;;27.10;81.00;;;;;;4997406;28;20383;-61
2022/08/28 07:30:05;;;;;;;;;;;27.10;81.00;;;;;;5018272;28;20410;-61
2022/08/28 07:32:33;;;;;;;;;;;27.10;81.10;;;;;;5006673;28;19929;-58
2022/08/28 07:35:00;;;;;;;;;;;27.10;81.10;;;;;;5019941;28;19937;-60
2022/08/28 07:37:27;;;;;;;;;;;27.20;81.10;;;;;;5012104;28;19934;-60
2022/08/28 07:39:54;;;;;;;;;;;27.20;81.10;;;;;;5026574;28;19944;-63
2022/08/28 07:45:08;;;;;;;;;;;27.20;81.10;;;;;;5007944;28;19930;-59
2022/08/28 07:47:37;;;;;;;;;;;27.20;81.10;;;;;;5018034;28;19936;-63
2022/08/28 07:50:04;;;;;;;;;;;27.20;81.10;;;;;;5003112;28;19941;-61
2022/08/28 07:52:31;;;;;;;;;;;27.20;81.10;;;;;;5012928;28;19929;-58
2022/08/28 07:54:59;;;;;;;;;;;27.20;81.10;;;;;;5008928;28;20448;-61
2022/08/28 07:57:26;;;;;;;;;;;27.20;81.10;;;;;;5013097;28;19944;-63
2022/08/28 07:59:54;;;;;;;;;;;27.30;81.20;;;;;;5015851;28;20371;-60
2022/08/28 08:02:21;;;;;;;;;;;27.20;81.10;;;;;;5014157;28;20286;-64
2022/08/28 08:04:48;;;;;;;;;;;27.20;81.10;;;;;;5022211;28;19929;-60
2022/08/28 08:07:16;;;;;;;;;;;27.20;81.10;;;;;;5005136;28;19930;-61
2022/08/28 08:09:45;;;;;;;;;;;27.30;81.20;;;;;;5008725;28;19929;-61
2022/08/28 08:12:13;;;;;;;;;;;27.20;81.70;;;;;;5019151;28;19940;-62
2022/08/28 08:14:42;;;;;;;;;;;27.30;81.20;;;;;;5017225;28;19953;-61
2022/08/28 08:17:09;;;;;;;;;;;27.30;81.10;;;;;;5011576;28;19929;-62
2022/08/28 08:19:37;;;;;;;;;;;27.30;81.10;;;;;;5006992;28;19936;-62
2022/08/28 08:22:04;;;;;;;;;;;27.30;81.20;;;;;;5012755;28;19933;-61
2022/08/28 08:24:31;;;;;;;;;;;27.30;81.20;;;;;;5011997;28;20318;-62
2022/08/28 08:26:59;;;;;;;;;;;27.30;81.20;;;;;;5007828;28;19929;-61
2022/08/28 08:29:32;;;;;;;;;;;27.30;81.20;;;;;;5004538;28;19934;-60
2022/08/28 08:32:03;;;;;;;;;;;27.30;81.10;;;;;;5024127;28;20313;-62
2022/08/28 08:34:33;;;;;;;;;;;27.30;81.10;;;;;;5013628;28;19933;-62
2022/08/28 08:37:00;;;;;;;;;;;27.30;81.30;;;;;;5012490;28;19929;-61
2022/08/28 08:39:27;;;;;;;;;;;27.30;81.10;;;;;;5007705;28;19960;-60
2022/08/28 08:41:58;;;;;;;;;;;27.30;81.10;;;;;;5013622;28;19929;-61
2022/08/28 08:44:46;;;;;;;;;;;27.30;81.20;;;;;;5013796;28;19929;-58
2022/08/28 08:47:22;;;;;;;;;;;27.30;81.20;;;;;;5012114;28;19926;-61
2022/08/28 08:50:00;;;;;;;;;;;27.30;81.20;;;;;;5029262;28;20040;-61
2022/08/28 08:52:35;;;;;;;;;;;27.30;81.20;;;;;;5013046;28;19941;-59
2022/08/28 08:55:04;;;;;;;;;;;27.30;81.80;;;;;;5016020;28;20373;-60
2022/08/28 08:57:33;;;;;;;;;;;27.30;81.20;;;;;;5017836;28;19929;-59
2022/08/28 09:00:02;;;;;;;;;;;27.30;81.20;;;;;;5014159;28;19929;-60
2022/08/28 09:02:33;;;;;;;;;;;27.30;81.30;;;;;;5011635;28;19936;-61
2022/08/28 09:05:03;;;;;;;;;;;27.30;81.30;;;;;;5035820;28;19929;-61
2022/08/28 09:07:33;;;;;;;;;;;27.20;81.20;;;;;;5011302;28;19929;-63
2022/08/28 09:10:01;;;;;;;;;;;27.20;81.30;;;;;;5016581;28;20388;-59
2022/08/28 09:12:29;;;;;;;;;;;27.30;81.30;;;;;;5010047;28;19933;-59
2022/08/28 09:14:56;;;;;;;;;;;27.20;81.30;;;;;;5018738;28;19929;-59
2022/08/28 09:17:26;;;;;;;;;;;27.20;81.30;;;;;;5010498;28;20333;-59
2022/08/28 09:19:53;;;;;;;;;;;27.20;81.30;;;;;;5011119;28;19930;-59
2022/08/28 09:22:21;;;;;;;;;;;27.20;81.30;;;;;;4990433;28;19929;-57
2022/08/28 09:24:50;;;;;;;;;;;27.20;81.30;;;;;;5016988;28;19929;-60
2022/08/28 09:27:30;;;;;;;;;;;27.20;81.30;;;;;;5003263;28;19965;-56
2022/08/28 09:29:59;;;;;;;;;;;27.20;81.20;;;;;;5005370;28;19936;-59
2022/08/28 09:32:37;;;;;;;;;;;27.20;81.20;;;;;;5019172;28;20400;-59
2022/08/28 09:35:07;;;;;;;;;;;27.20;81.20;;;;;;5007894;28;19933;-56
2022/08/28 09:37:35;;;;;;;;;;;27.20;81.20;;;;;;5015079;28;19934;-56
2022/08/28 09:40:15;;;;;;;;;;;27.20;81.30;;;;;;5011271;28;19936;-62
2022/08/28 09:45:58;;;;;;;;;;;27.20;81.20;;;;;;5011073;28;19963;-57
2022/08/28 09:48:38;;;;;;;;;;;27.20;81.20;;;;;;5017805;28;20286;-58
2022/08/28 09:51:07;;;;;;;;;;;27.20;81.20;;;;;;5021189;28;19926;-59
2022/08/28 09:53:37;;;;;;;;;;;27.30;81.20;;;;;;5009138;28;19925;-57
2022/08/28 09:56:07;;;;;;;;;;;27.30;81.20;;;;;;5015954;28;20428;-58
2022/08/28 09:58:36;;;;;;;;;;;27.30;81.20;;;;;;5014844;28;19929;-58
2022/08/28 10:01:09;;;;;;;;;;;27.30;81.20;;;;;;5015922;28;19965;-62
2022/08/28 10:03:42;;;;;;;;;;;27.30;81.20;;;;;;5025634;28;19936;-61
2022/08/28 10:06:27;;;;;;;;;;;27.30;81.20;;;;;;5015400;28;20009;-58
2022/08/28 10:08:59;;;;;;;;;;;27.30;81.20;;;;;;5028381;28;19929;-60
2022/08/28 10:11:36;;;;;;;;;;;27.30;81.10;;;;;;5019246;28;19945;-61
2022/08/28 10:14:13;;;;;;;;;;;27.30;81.10;;;;;;5028474;28;19929;-58
2022/08/28 10:16:54;;;;;;;;;;;27.30;81.10;;;;;;4999719;28;19925;-57
2022/08/28 10:19:41;;;;;;;;;;;27.30;81.10;;;;;;5002586;28;19929;-55
2022/08/28 10:22:18;;;;;;;;;;;27.30;81.10;;;;;;5024803;28;19929;-59
2022/08/28 10:24:54;;;;;;;;;;;27.30;81.10;;;;;;5022970;28;20361;-60
2022/08/28 10:27:21;;;;;;;;;;;27.30;81.10;;;;;;5029586;28;19929;-61
2022/08/28 10:29:51;;;;;;;;;;;27.30;81.10;;;;;;5022927;28;19993;-60
2022/08/28 10:32:37;;;;;;;;;;;27.30;81.10;;;;;;5017702;28;20324;-61
2022/08/28 10:35:04;;;;;;;;;;;27.30;81.10;;;;;;5010500;28;19929;-59
2022/08/28 10:37:41;;;;;;;;;;;27.30;81.20;;;;;;5011633;28;19930;-61
2022/08/28 10:40:11;;;;;;;;;;;27.30;81.20;;;;;;5000628;28;20029;-56
2022/08/28 10:42:41;;;;;;;;;;;27.30;81.20;;;;;;5010200;28;19941;-58
2022/08/28 10:45:16;;;;;;;;;;;27.30;81.10;;;;;;5022886;28;20032;-57
2022/08/28 10:48:09;;;;;;;;;;;27.30;81.10;;;;;;5012539;28;19932;-57
2022/08/28 10:50:48;;;;;;;;;;;27.30;81.10;;;;;;5008557;28;19940;-59
2022/08/28 10:53:20;;;;;;;;;;;27.30;81.10;;;;;;5014704;28;19930;-58
2022/08/28 10:55:50;;;;;;;;;;;27.30;81.10;;;;;;5023784;28;19936;-58
2022/08/28 10:58:17;;;;;;;;;;;27.30;81.10;;;;;;5012814;28;19937;-59
2022/08/28 11:01:05;;;;;;;;;;;27.30;81.10;;;;;;5011279;28;19937;-60
2022/08/28 11:03:39;;;;;;;;;;;27.30;81.10;;;;;;5005199;28;19929;-58
2022/08/28 11:06:11;;;;;;;;;;;27.30;81.10;;;;;;5018059;28;19934;-58
2022/08/28 11:08:39;;;;;;;;;;;27.30;81.10;;;;;;5016337;28;20522;-59
2022/08/28 11:11:11;;;;;;;;;;;27.30;81.00;;;;;;5010957;28;19926;-59
2022/08/28 11:13:38;;;;;;;;;;;27.30;81.00;;;;;;5017281;28;19941;-60
2022/08/28 11:16:10;;;;;;;;;;;27.30;81.00;;;;;;5006119;28;19957;-57
2022/08/28 11:18:46;;;;;;;;;;;27.30;81.00;;;;;;5009364;28;20302;-57
2022/08/28 11:21:25;;;;;;;;;;;27.30;81.00;;;;;;5015037;28;19929;-60
2022/08/28 11:23:58;;;;;;;;;;;27.30;81.00;;;;;;5015031;28;19953;-60
2022/08/28 11:26:49;;;;;;;;;;;27.30;81.10;;;;;;5011011;28;20340;-57
2022/08/28 11:29:35;;;;;;;;;;;27.30;81.00;;;;;;5014044;28;20409;-56
2022/08/28 11:32:21;;;;;;;;;;;27.30;81.00;;;;;;5004554;28;19929;-57
2022/08/28 11:35:18;;;;;;;;;;;27.40;81.10;;;;;;4996577;28;20620;-59
2022/08/28 11:37:47;;;;;;;;;;;27.30;81.00;;;;;;5005297;28;19930;-59
2022/08/28 11:40:29;;;;;;;;;;;27.40;81.10;;;;;;4999845;28;20431;-59
2022/08/28 11:43:14;;;;;;;;;;;27.30;81.00;;;;;;5010605;28;20468;-58
2022/08/28 11:45:42;;;;;;;;;;;27.30;81.00;;;;;;5001812;28;19929;-56
2022/08/28 11:48:32;;;;;;;;;;;27.30;81.00;;;;;;5007711;28;20281;-61
2022/08/28 11:51:01;;;;;;;;;;;27.30;81.00;;;;;;5012219;28;19936;-59
2022/08/28 11:53:31;;;;;;;;;;;27.30;81.10;;;;;;5022990;28;20201;-61
2022/08/28 11:56:18;;;;;;;;;;;27.30;81.00;;;;;;5003854;28;19929;-58
2022/08/28 11:59:06;;;;;;;;;;;27.40;81.10;;;;;;5020263;28;19952;-59
2022/08/28 12:01:36;;;;;;;;;;;27.30;81.00;;;;;;5014339;28;19929;-58
2022/08/28 12:04:03;;;;;;;;;;;27.30;81.00;;;;;;5034012;28;19929;-60
2022/08/28 12:06:43;;;;;;;;;;;27.30;81.00;;;;;;5008217;28;19929;-58
2022/08/28 12:09:11;;;;;;;;;;;27.40;81.00;;;;;;5008140;28;19933;-58
2022/08/28 12:11:38;;;;;;;;;;;27.40;81.00;;;;;;5013861;28;19929;-58
2022/08/28 12:14:06;;;;;;;;;;;27.40;81.60;;;;;;5012507;28;19936;-57
2022/08/28 12:16:52;;;;;;;;;;;27.30;80.90;;;;;;5008485;28;19936;-61
2022/08/28 12:19:58;;;;;;;;;;;27.40;81.00;;;;;;5011735;28;20227;-57
2022/08/28 12:22:41;;;;;;;;;;;27.40;80.90;;;;;;4995405;28;19929;-58
2022/08/28 12:25:14;;;;;;;;;;;27.40;80.90;;;;;;4988560;28;19995;-57
2022/08/28 12:27:41;;;;;;;;;;;27.40;80.90;;;;;;4993793;28;19926;-57
2022/08/28 12:30:08;;;;;;;;;;;27.40;80.90;;;;;;5004073;28;19936;-56
2022/08/28 12:32:41;;;;;;;;;;;27.40;80.90;;;;;;4972766;28;19930;-58
2022/08/28 12:35:13;;;;;;;;;;;27.40;80.90;;;;;;4986529;28;19929;-60
2022/08/28 12:37:45;;;;;;;;;;;27.40;80.80;;;;;;4999832;28;19936;-57
2022/08/28 12:40:21;;;;;;;;;;;27.40;80.80;;;;;;4980319;28;19929;-58
2022/08/28 12:42:51;;;;;;;;;;;27.40;80.80;;;;;;4992260;28;19937;-58
2022/08/28 12:45:30;;;;;;;;;;;27.40;80.80;;;;;;4949080;28;19930;-58
2022/08/28 12:48:00;;;;;;;;;;;27.40;80.80;;;;;;4987644;28;19934;-59
2022/08/28 12:50:32;;;;;;;;;;;27.40;80.80;;;;;;4986610;28;19941;-55
2022/08/28 12:53:02;;;;;;;;;;;27.40;80.80;;;;;;4983845;28;20519;-58
2022/08/28 12:55:30;;;;;;;;;;;27.40;80.90;;;;;;5025031;28;20169;-58
2022/08/28 12:57:57;;;;;;;;;;;27.40;80.90;;;;;;5015707;28;19953;-55
2022/08/28 13:00:26;;;;;;;;;;;27.40;80.90;;;;;;5012832;28;20400;-59
2022/08/28 13:02:54;;;;;;;;;;;27.40;80.90;;;;;;5005690;28;20369;-58
2022/08/28 13:05:27;;;;;;;;;;;27.40;80.90;;;;;;5008752;28;19929;-57
2022/08/28 13:07:55;;;;;;;;;;;27.40;80.90;;;;;;5001343;28;19936;-56
2022/08/28 13:10:30;;;;;;;;;;;27.40;80.90;;;;;;5013908;28;19925;-59
2022/08/28 13:13:00;;;;;;;;;;;27.40;80.90;;;;;;5017751;28;20456;-59
2022/08/28 13:15:50;;;;;;;;;;;27.40;80.90;;;;;;5015967;28;19941;-61
2022/08/28 13:18:35;;;;;;;;;;;27.40;80.90;;;;;;5018641;28;19940;-60
2022/08/28 13:21:18;;;;;;;;;;;27.40;80.90;;;;;;5015573;28;19936;-62
2022/08/28 13:24:18;;;;;;;;;;;27.40;80.90;;;;;;5010007;28;19926;-60
2022/08/28 13:26:47;;;;;;;;;;;27.40;80.90;;;;;;5005884;28;19936;-54
2022/08/28 13:29:18;;;;;;;;;;;27.40;80.90;;;;;;5011228;28;20393;-56
2022/08/28 13:31:54;;;;;;;;;;;27.40;80.90;;;;;;5017813;28;19937;-57
2022/08/28 13:34:24;;;;;;;;;;;27.40;80.90;;;;;;5012627;28;19926;-57
2022/08/28 13:36:58;;;;;;;;;;;27.40;80.90;;;;;;5016528;28;19981;-57
2022/08/28 13:39:27;;;;;;;;;;;27.40;80.80;;;;;;5003676;28;19926;-54
2022/08/28 13:42:00;;;;;;;;;;;27.40;80.80;;;;;;5009822;28;20449;-58
2022/08/28 13:44:32;;;;;;;;;;;27.40;80.90;;;;;;4999764;28;19953;-54
2022/08/28 13:47:01;;;;;;;;;;;27.40;80.90;;;;;;5015519;28;19936;-58
2022/08/28 13:49:28;;;;;;;;;;;27.40;80.90;;;;;;5007969;28;20440;-54
2022/08/28 13:51:56;;;;;;;;;;;27.40;80.90;;;;;;5018172;28;19937;-59
2022/08/28 13:54:24;;;;;;;;;;;27.30;80.90;;;;;;5002259;28;19930;-61
2022/08/28 13:56:54;;;;;;;;;;;27.40;80.90;;;;;;5018481;28;19936;-59
2022/08/28 13:59:22;;;;;;;;;;;27.40;80.90;;;;;;5006190;28;19930;-57
2022/08/28 14:04:37;;;;;;;;;;;27.30;80.80;;;;;;5018256;28;19929;-60
2022/08/28 14:07:06;;;;;;;;;;;27.40;80.90;;;;;;5016600;28;19936;-57
2022/08/28 14:09:34;;;;;;;;;;;27.40;80.90;;;;;;5002845;28;19936;-56
2022/08/28 14:12:02;;;;;;;;;;;27.40;80.90;;;;;;5000150;28;20258;-57
2022/08/28 14:14:31;;;;;;;;;;;27.30;80.80;;;;;;5012992;28;19929;-58
2022/08/28 14:16:58;;;;;;;;;;;27.30;80.80;;;;;;5015925;28;19941;-56
2022/08/28 14:19:26;;;;;;;;;;;27.30;81.40;;;;;;5014649;28;19930;-56
2022/08/28 14:21:53;;;;;;;;;;;27.40;80.90;;;;;;5006766;28;19933;-58
2022/08/28 14:24:21;;;;;;;;;;;27.40;80.80;;;;;;5018412;28;20401;-56
2022/08/28 14:26:51;;;;;;;;;;;27.40;80.80;;;;;;5027002;28;20012;-56
2022/08/28 14:29:18;;;;;;;;;;;27.50;80.90;;;;;;5009595;28;19937;-61
2022/08/28 14:31:46;;;;;;;;;;;27.50;80.80;;;;;;5014138;28;20397;-59
2022/08/28 14:34:14;;;;;;;;;;;27.50;80.80;;;;;;5018618;28;19937;-59
2022/08/28 14:36:42;;;;;;;;;;;27.40;80.70;;;;;;5000575;28;19945;-58
2022/08/28 14:39:10;;;;;;;;;;;27.40;80.70;;;;;;5010283;28;20399;-56
2022/08/28 14:41:40;;;;;;;;;;;27.40;80.80;;;;;;5000636;28;20401;-56
2022/08/28 14:44:08;;;;;;;;;;;27.40;80.80;;;;;;4994332;28;19941;-58
2022/08/28 14:46:35;;;;;;;;;;;27.40;80.80;;;;;;5020235;28;19925;-59
2022/08/28 14:49:07;;;;;;;;;;;27.40;80.80;;;;;;5017039;28;19952;-59